Time;durP1;ratioP1;P1;durP2;ratioP2;P2;SDS_P1;SDS_P2;PMS_P1;PMS_P2;Temp;Humidity;BMP_temperature;BMP_pressure;BME280_temperature;BME280_humidity;BME280_pressure;Samples;Min_cycle;Max_cycle;Signal;HPM_P1;HPM_P2
2022/07/30 00:01:43;;;;;;;13.15;8.30;;;14.50;99.90;;;;;;5075447;28;20481;-66
2022/07/30 00:04:08;;;;;;;13.23;8.23;;;14.40;99.90;;;;;;5056076;28;20493;-66
2022/07/30 00:06:36;;;;;;;29.30;9.85;;;14.50;99.90;;;;;;5064846;28;20044;-66
2022/07/30 00:09:02;;;;;;;11.52;8.77;;;14.50;99.90;;;;;;5057801;28;20060;-66
2022/07/30 00:11:28;;;;;;;10.05;7.45;;;14.60;99.90;;;;;;5067931;28;20489;-66
2022/07/30 00:13:55;;;;;;;11.23;7.45;;;14.60;99.90;;;;;;5064964;28;20044;-66
2022/07/30 00:16:20;;;;;;;8.50;7.18;;;14.40;99.90;;;;;;5086022;28;20123;-66
2022/07/30 00:18:46;;;;;;;10.60;6.88;;;14.20;99.90;;;;;;5068693;28;20116;-66
2022/07/30 00:21:12;;;;;;;8.80;7.38;;;14.00;99.90;;;;;;5089072;28;20421;-67
2022/07/30 00:23:37;;;;;;;11.85;8.25;;;14.00;99.90;;;;;;5093532;28;20052;-66
2022/07/30 00:26:03;;;;;;;10.38;8.40;;;13.90;99.90;;;;;;5104520;28;20051;-66
2022/07/30 00:28:29;;;;;;;12.70;8.40;;;14.00;99.90;;;;;;5095510;28;20121;-66
2022/07/30 00:30:54;;;;;;;10.93;7.90;;;14.00;99.90;;;;;;5078160;28;20044;-66
2022/07/30 00:33:20;;;;;;;13.90;9.10;;;14.00;99.90;;;;;;5103638;28;20490;-66
2022/07/30 00:35:46;;;;;;;9.65;8.32;;;13.90;99.90;;;;;;5089248;28;20055;-66
2022/07/30 00:38:12;;;;;;;11.52;9.57;;;13.80;99.90;;;;;;5098538;28;20040;-66
2022/07/30 00:40:39;;;;;;;13.18;9.27;;;13.60;99.90;;;;;;5093059;28;20530;-66
2022/07/30 00:43:04;;;;;;;11.55;9.30;;;13.60;99.90;;;;;;5090163;28;20104;-66
2022/07/30 00:45:30;;;;;;;12.57;10.32;;;13.70;99.90;;;;;;5092336;28;20037;-66
2022/07/30 00:47:57;;;;;;;13.82;9.10;;;13.80;99.90;;;;;;5099588;28;20397;-66
2022/07/30 00:50:23;;;;;;;12.75;9.55;;;13.80;99.90;;;;;;5104625;28;20052;-66
2022/07/30 00:52:48;;;;;;;13.27;8.77;;;13.60;99.90;;;;;;5095211;28;20040;-66
2022/07/30 00:55:15;;;;;;;12.15;8.88;;;13.50;99.90;;;;;;5102743;28;20054;-66
2022/07/30 00:57:42;;;;;;;12.10;9.00;;;13.40;99.90;;;;;;5100261;28;20475;-66
2022/07/30 01:00:11;;;;;;;16.90;10.77;;;13.50;99.90;;;;;;5099803;28;20067;-66
2022/07/30 01:02:37;;;;;;;14.57;9.57;;;13.40;99.90;;;;;;5101851;28;20040;-66
2022/07/30 01:05:03;;;;;;;32.58;12.43;;;13.30;99.90;;;;;;5098936;28;20049;-66
2022/07/30 01:07:29;;;;;;;15.45;11.95;;;13.30;99.90;;;;;;5089044;28;20045;-66
2022/07/30 01:09:55;;;;;;;17.33;13.50;;;13.30;99.90;;;;;;5090882;28;20139;-66
2022/07/30 01:12:24;;;;;;;19.05;14.85;;;13.30;99.90;;;;;;5092822;28;20032;-66
2022/07/30 01:14:51;;;;;;;16.85;14.23;;;13.30;99.90;;;;;;5100155;28;20056;-66
2022/07/30 01:17:17;;;;;;;17.25;13.75;;;13.30;99.90;;;;;;5088427;28;20047;-66
2022/07/30 01:19:47;;;;;;;17.60;13.40;;;13.30;99.90;;;;;;5092792;28;20052;-66
2022/07/30 01:22:25;;;;;;;;;;;13.10;99.90;;;;;;5094473;28;20071;-66
2022/07/30 01:25:31;;;;;;;13.40;12.00;;;13.10;99.90;;;;;;5091958;28;19920;-66
2022/07/30 01:28:07;;;;;;;15.40;13.13;;;13.10;99.90;;;;;;5055813;28;20044;-66
2022/07/30 01:30:37;;;;;;;18.08;14.25;;;13.20;99.90;;;;;;5093990;28;20082;-66
2022/07/30 01:33:04;;;;;;;18.42;14.35;;;13.20;99.90;;;;;;5101609;28;20044;-66
2022/07/30 01:35:33;;;;;;;23.60;17.13;;;13.20;99.90;;;;;;5103842;28;20055;-66
2022/07/30 01:38:00;;;;;;;24.42;16.65;;;13.20;99.90;;;;;;5098832;28;20112;-67
2022/07/30 01:40:27;;;;;;;15.82;11.57;;;13.20;99.90;;;;;;5098641;28;20044;-66
2022/07/30 01:42:57;;;;;;;18.50;14.98;;;13.10;99.90;;;;;;5101981;28;20052;-66
2022/07/30 01:45:24;;;;;;;21.60;15.40;;;13.10;99.90;;;;;;5095756;28;20053;-66
2022/07/30 01:47:53;;;;;;;28.23;16.23;;;13.00;99.90;;;;;;5095251;28;20057;-66
2022/07/30 01:50:20;;;;;;;18.17;15.40;;;12.90;99.90;;;;;;5106256;28;20581;-67
2022/07/30 01:52:49;;;;;;;21.35;15.95;;;13.00;99.90;;;;;;5077143;28;20048;-66
2022/07/30 01:55:20;;;;;;;20.67;13.93;;;13.10;99.90;;;;;;5094581;28;20056;-67
2022/07/30 01:57:48;;;;;;;18.27;14.10;;;13.10;99.90;;;;;;5068909;28;20040;-66
2022/07/30 02:00:16;;;;;;;18.15;13.77;;;13.10;99.90;;;;;;5092247;28;20049;-66
2022/07/30 02:02:41;;;;;;;19.50;14.70;;;13.20;99.90;;;;;;5095153;28;20057;-66
2022/07/30 02:05:08;;;;;;;51.40;20.25;;;13.20;99.90;;;;;;5085872;28;20078;-66
2022/07/30 02:07:41;;;;;;;24.05;17.33;;;13.10;99.90;;;;;;5087288;28;20059;-66
2022/07/30 02:10:42;;;;;;;14.38;12.73;;;13.00;99.90;;;;;;5099581;28;20045;-66
2022/07/30 02:13:10;;;;;;;11.95;10.68;;;13.00;99.90;;;;;;5092660;28;20058;-66
2022/07/30 02:15:39;;;;;;;12.85;11.43;;;12.90;99.90;;;;;;5092634;28;20048;-66
2022/07/30 02:18:17;;;;;;;11.80;10.60;;;13.00;99.90;;;;;;5091255;28;20579;-66
2022/07/30 02:20:47;;;;;;;15.88;10.98;;;13.00;99.90;;;;;;5092890;28;20057;-67
2022/07/30 02:23:14;;;;;;;11.50;10.25;;;13.00;99.90;;;;;;5097075;28;20059;-66
2022/07/30 02:25:46;;;;;;;12.60;11.30;;;12.90;99.90;;;;;;5102649;28;20048;-66
2022/07/30 02:28:14;;;;;;;12.43;10.40;;;12.90;99.90;;;;;;5091869;28;20062;-66
2022/07/30 02:30:46;;;;;;;11.20;9.88;;;12.70;99.90;;;;;;5088773;28;20045;-66
2022/07/30 02:33:15;;;;;;;11.95;10.30;;;12.70;99.90;;;;;;5088331;28;20044;-66
2022/07/30 02:35:41;;;;;;;12.90;10.10;;;12.70;99.90;;;;;;5091308;28;20463;-66
2022/07/30 02:38:09;;;;;;;14.60;10.10;;;12.70;99.90;;;;;;5101567;28;20052;-67
2022/07/30 02:40:40;;;;;;;13.35;10.88;;;12.70;99.90;;;;;;5077670;28;20127;-66
2022/07/30 02:43:06;;;;;;;14.80;12.90;;;12.80;99.90;;;;;;5101018;28;20040;-66
2022/07/30 02:45:33;;;;;;;14.10;12.20;;;12.90;99.90;;;;;;5095399;28;20051;-66
2022/07/30 02:48:05;;;;;;;13.90;10.90;;;13.00;99.90;;;;;;5090573;28;20048;-66
2022/07/30 02:50:32;;;;;;;14.23;10.63;;;12.80;99.90;;;;;;5100775;28;20088;-66
2022/07/30 02:53:00;;;;;;;11.38;9.25;;;12.70;99.90;;;;;;5103011;28;20071;-66
2022/07/30 02:55:28;;;;;;;14.77;10.13;;;12.60;99.90;;;;;;5079833;28;20040;-66
2022/07/30 02:57:56;;;;;;;11.32;8.65;;;12.50;99.90;;;;;;5095638;28;20051;-66
2022/07/30 03:00:23;;;;;;;10.88;9.73;;;12.50;99.90;;;;;;5091766;28;20083;-66
2022/07/30 03:02:51;;;;;;;12.32;9.75;;;12.50;99.90;;;;;;5090218;28;20078;-66
2022/07/30 03:05:17;;;;;;;11.77;9.10;;;12.60;99.90;;;;;;5097670;28;20060;-66
2022/07/30 03:07:45;;;;;;;9.52;8.52;;;12.60;99.90;;;;;;5099714;28;20047;-66
2022/07/30 03:10:12;;;;;;;9.63;7.72;;;12.70;99.90;;;;;;5099420;28;20066;-66
2022/07/30 03:12:39;;;;;;;8.50;6.68;;;12.60;99.90;;;;;;5096990;28;20064;-66
2022/07/30 03:15:05;;;;;;;9.13;6.93;;;12.30;99.90;;;;;;5092104;28;20045;-66
2022/07/30 03:17:37;;;;;;;8.65;6.53;;;12.30;99.90;;;;;;5101423;28;20477;-66
2022/07/30 03:20:09;;;;;;;9.65;8.18;;;12.40;99.90;;;;;;5096073;28;20041;-66
2022/07/30 03:22:42;;;;;;;9.45;8.38;;;12.50;99.90;;;;;;5091274;28;20056;-66
2022/07/30 03:25:11;;;;;;;9.90;8.18;;;12.50;99.90;;;;;;5092307;28;20056;-66
2022/07/30 03:27:38;;;;;;;8.57;7.03;;;12.50;99.90;;;;;;5088692;28;20043;-66
2022/07/30 03:30:05;;;;;;;9.68;6.57;;;12.40;99.90;;;;;;5095911;28;20056;-66
2022/07/30 03:32:31;;;;;;;8.55;6.57;;;12.40;99.90;;;;;;5079545;28;20074;-67
2022/07/30 03:34:58;;;;;;;9.88;6.63;;;12.30;99.90;;;;;;5068495;28;20040;-66
2022/07/30 03:37:26;;;;;;;12.93;8.20;;;12.30;99.90;;;;;;5088868;28;20054;-66
2022/07/30 03:39:53;;;;;;;10.77;6.93;;;12.40;99.90;;;;;;5084588;28;20040;-66
2022/07/30 03:42:20;;;;;;;10.15;8.23;;;12.40;99.90;;;;;;5078445;28;20076;-66
2022/07/30 03:44:46;;;;;;;10.73;8.00;;;12.50;99.90;;;;;;5079933;28;20053;-66
2022/07/30 03:47:14;;;;;;;9.57;8.13;;;12.60;99.90;;;;;;5077993;28;20056;-66
2022/07/30 03:49:40;;;;;;;12.48;8.38;;;12.50;99.90;;;;;;5094185;28;20051;-66
2022/07/30 03:52:07;;;;;;;8.38;7.57;;;12.50;99.90;;;;;;5051886;28;20056;-66
2022/07/30 03:54:33;;;;;;;12.18;8.82;;;12.40;99.90;;;;;;5082820;28;20075;-66
2022/07/30 03:57:01;;;;;;;10.00;8.20;;;12.30;99.90;;;;;;5071196;28;20967;-66
2022/07/30 03:59:28;;;;;;;14.65;10.25;;;12.10;99.90;;;;;;5092717;28;20047;-66
2022/07/30 04:01:58;;;;;;;13.50;10.57;;;12.10;99.90;;;;;;5083464;28;20070;-66
2022/07/30 04:04:24;;;;;;;11.82;10.48;;;12.10;99.90;;;;;;5080190;28;20408;-66
2022/07/30 04:06:49;;;;;;;14.25;10.48;;;12.20;99.90;;;;;;5077435;28;20072;-66
2022/07/30 04:09:15;;;;;;;12.70;8.63;;;12.30;99.90;;;;;;5077248;28;20040;-66
2022/07/30 04:11:41;;;;;;;14.75;9.32;;;12.20;99.90;;;;;;5071765;28;20039;-66
2022/07/30 04:14:07;;;;;;;10.75;8.57;;;12.30;99.90;;;;;;5098866;28;20059;-66
2022/07/30 04:16:58;;;;;;;9.93;7.95;;;12.40;99.90;;;;;;5053888;28;20504;-66
2022/07/30 04:19:46;;;;;;;11.10;8.38;;;12.40;99.90;;;;;;5092733;28;20052;-66
2022/07/30 04:22:15;;;;;;;16.95;12.25;;;12.40;99.90;;;;;;5073991;28;20133;-66
2022/07/30 04:24:43;;;;;;;18.52;12.80;;;12.50;99.90;;;;;;5053014;28;20080;-66
2022/07/30 04:27:10;;;;;;;25.73;13.13;;;12.50;99.90;;;;;;5060856;28;20045;-66
2022/07/30 04:29:36;;;;;;;15.63;12.80;;;12.60;99.90;;;;;;5053088;28;20041;-66
2022/07/30 04:32:02;;;;;;;17.48;12.98;;;12.70;99.90;;;;;;5072958;28;20135;-66
2022/07/30 04:34:28;;;;;;;19.58;13.25;;;12.80;99.90;;;;;;5052012;28;20074;-66
2022/07/30 04:36:53;;;;;;;21.08;15.00;;;12.80;99.90;;;;;;5060649;28;20041;-66
2022/07/30 04:39:19;;;;;;;21.48;14.57;;;12.80;99.90;;;;;;5053639;28;20242;-66
2022/07/30 04:41:45;;;;;;;16.77;13.93;;;12.90;99.90;;;;;;5067305;28;20044;-66
2022/07/30 04:44:10;;;;;;;14.80;13.23;;;12.70;99.90;;;;;;5058727;28;20041;-66
2022/07/30 04:46:36;;;;;;;16.98;13.65;;;12.80;99.90;;;;;;5075223;28;20084;-66
2022/07/30 04:49:02;;;;;;;19.50;14.35;;;12.80;99.90;;;;;;5054480;28;20037;-66
2022/07/30 04:51:32;;;;;;;20.65;14.60;;;12.80;99.90;;;;;;5069577;28;20389;-66
2022/07/30 04:54:00;;;;;;;19.67;14.93;;;12.90;99.90;;;;;;5073885;28;20076;-66
2022/07/30 04:56:29;;;;;;;18.73;15.13;;;13.00;99.90;;;;;;5061036;28;20076;-66
2022/07/30 04:58:55;;;;;;;19.00;15.82;;;13.00;99.90;;;;;;5065742;28;20075;-66
2022/07/30 05:01:25;;;;;;;20.00;14.63;;;13.10;99.90;;;;;;5058060;28;20071;-66
2022/07/30 05:03:52;;;;;;;23.38;16.27;;;13.30;99.90;;;;;;5058233;28;20061;-66
2022/07/30 05:06:19;;;;;;;22.15;16.45;;;13.30;99.90;;;;;;5075534;28;20041;-66
2022/07/30 05:08:45;;;;;;;19.83;16.00;;;13.40;99.90;;;;;;5086121;28;20067;-66
2022/07/30 05:11:15;;;;;;;20.67;16.10;;;13.50;99.90;;;;;;5060523;28;20039;-66
2022/07/30 05:13:42;;;;;;;22.75;17.52;;;13.60;99.90;;;;;;5057052;28;20128;-66
2022/07/30 05:16:08;;;;;;;21.45;16.88;;;13.70;99.90;;;;;;5074730;28;20093;-66
2022/07/30 05:18:34;;;;;;;23.75;18.58;;;13.80;99.90;;;;;;5076017;28;20044;-66
2022/07/30 05:20:59;;;;;;;23.88;18.10;;;13.90;99.90;;;;;;5075401;28;20060;-66
2022/07/30 05:23:25;;;;;;;29.70;20.38;;;14.00;99.90;;;;;;5080503;28;20086;-66
2022/07/30 05:25:51;;;;;;;27.92;20.63;;;14.00;99.90;;;;;;5077100;28;20036;-66
2022/07/30 05:28:16;;;;;;;24.77;19.05;;;14.20;99.90;;;;;;5097762;28;20044;-66
2022/07/30 05:30:42;;;;;;;26.63;21.38;;;14.20;99.90;;;;;;5081411;28;20048;-66
2022/07/30 05:33:08;;;;;;;34.17;23.33;;;14.30;99.90;;;;;;5072338;28;20104;-66
2022/07/30 05:35:33;;;;;;;31.58;23.08;;;14.40;99.90;;;;;;5074478;28;20048;-66
2022/07/30 05:37:59;;;;;;;30.02;23.17;;;14.60;99.90;;;;;;5079124;28;20060;-66
2022/07/30 05:40:25;;;;;;;31.23;23.67;;;14.70;99.90;;;;;;5077016;28;20040;-66
2022/07/30 05:42:51;;;;;;;31.42;22.88;;;14.80;99.90;;;;;;5106734;28;20055;-67
2022/07/30 05:45:17;;;;;;;30.90;20.67;;;14.90;99.90;;;;;;5079095;28;20044;-66
2022/07/30 05:47:42;;;;;;;32.95;25.08;;;15.00;99.90;;;;;;5101372;28;20040;-66
2022/07/30 05:50:08;;;;;;;30.10;23.95;;;15.00;99.90;;;;;;5084899;28;20115;-66
2022/07/30 05:52:34;;;;;;;31.65;22.92;;;15.10;99.90;;;;;;5076133;28;20061;-66
2022/07/30 05:54:59;;;;;;;27.23;21.65;;;15.20;99.90;;;;;;5082200;28;20108;-66
2022/07/30 05:57:25;;;;;;;30.13;20.15;;;15.20;99.90;;;;;;5085204;28;20049;-66
2022/07/30 05:59:51;;;;;;;30.33;21.73;;;15.20;99.90;;;;;;5083927;28;20047;-66
2022/07/30 06:02:16;;;;;;;25.45;19.30;;;15.30;99.90;;;;;;5098762;28;20047;-66
2022/07/30 06:04:42;;;;;;;29.90;19.70;;;15.30;99.90;;;;;;5083823;28;20036;-66
2022/07/30 06:07:08;;;;;;;25.10;20.05;;;15.40;99.90;;;;;;5100396;28;20052;-66
2022/07/30 06:09:34;;;;;;;27.77;19.60;;;15.40;99.90;;;;;;5069107;28;20048;-66
2022/07/30 06:11:59;;;;;;;21.27;18.33;;;15.50;99.90;;;;;;5071511;28;20048;-66
2022/07/30 06:14:25;;;;;;;24.77;19.67;;;15.60;99.90;;;;;;5079910;28;20044;-66
2022/07/30 06:16:50;;;;;;;21.92;16.60;;;15.60;99.90;;;;;;5082662;28;20052;-66
2022/07/30 06:19:16;;;;;;;23.83;17.27;;;15.70;99.90;;;;;;5100204;28;20842;-66
2022/07/30 06:21:42;;;;;;;20.35;15.23;;;15.70;99.90;;;;;;5073145;28;20102;-66
2022/07/30 06:24:08;;;;;;;24.20;16.45;;;15.80;99.90;;;;;;5090922;28;20052;-66
2022/07/30 06:26:33;;;;;;;22.88;16.70;;;15.90;99.90;;;;;;5081588;28;20040;-66
2022/07/30 06:28:59;;;;;;;21.40;14.65;;;15.90;99.90;;;;;;5097507;28;20999;-66
2022/07/30 06:31:25;;;;;;;19.95;15.80;;;16.00;99.90;;;;;;5094125;28;20397;-67
2022/07/30 06:33:50;;;;;;;19.73;16.17;;;16.10;99.90;;;;;;5078999;28;20047;-66
2022/07/30 06:36:16;;;;;;;19.10;14.32;;;16.20;99.90;;;;;;5078010;28;20068;-66
2022/07/30 06:38:42;;;;;;;16.10;13.70;;;16.20;99.90;;;;;;5077789;28;20096;-66
2022/07/30 06:41:08;;;;;;;19.02;14.93;;;16.30;99.90;;;;;;5071128;28;20049;-66
2022/07/30 06:43:34;;;;;;;19.25;14.90;;;16.40;99.90;;;;;;5080400;28;20476;-66
2022/07/30 06:46:00;;;;;;;16.80;13.68;;;16.50;99.90;;;;;;5067170;28;20074;-66
2022/07/30 06:48:25;;;;;;;22.42;14.95;;;16.60;99.90;;;;;;5081712;28;20104;-66
2022/07/30 06:50:51;;;;;;;18.90;13.27;;;16.70;99.90;;;;;;5081625;28;20119;-66
2022/07/30 06:53:17;;;;;;;16.23;13.52;;;16.70;99.90;;;;;;5082274;28;20048;-66
2022/07/30 06:55:43;;;;;;;17.80;13.05;;;16.90;99.90;;;;;;5074690;28;20052;-66
2022/07/30 06:58:09;;;;;;;16.38;13.18;;;16.90;99.90;;;;;;5075886;28;20056;-66
2022/07/30 07:00:34;;;;;;;18.27;13.07;;;17.10;99.90;;;;;;5073051;28;20172;-66
2022/07/30 07:03:00;;;;;;;14.77;11.05;;;17.20;99.90;;;;;;5104626;28;20071;-66
2022/07/30 07:05:27;;;;;;;14.35;11.55;;;17.30;99.90;;;;;;5082561;28;20048;-66
2022/07/30 07:07:53;;;;;;;17.98;12.38;;;17.40;99.90;;;;;;5083639;28;20055;-67
2022/07/30 07:10:19;;;;;;;18.13;11.35;;;17.50;99.90;;;;;;5100234;28;20039;-66
2022/07/30 07:12:45;;;;;;;17.67;11.20;;;17.70;99.90;;;;;;5075399;28;20063;-66
2022/07/30 07:15:11;;;;;;;16.38;10.68;;;17.80;99.90;;;;;;5100275;28;20036;-66
2022/07/30 07:17:39;;;;;;;16.05;10.35;;;17.90;99.90;;;;;;5070802;28;20036;-66
2022/07/30 07:20:05;;;;;;;18.63;10.13;;;18.10;99.90;;;;;;5075564;28;20061;-66
2022/07/30 07:22:31;;;;;;;15.82;10.02;;;18.10;99.90;;;;;;5089332;28;20063;-66
2022/07/30 07:24:56;;;;;;;11.93;9.05;;;18.30;99.90;;;;;;5101484;28;20045;-65
2022/07/30 07:27:22;;;;;;;21.00;10.18;;;18.40;99.90;;;;;;5099406;28;20516;-66
2022/07/30 07:29:48;;;;;;;13.63;10.30;;;18.50;99.90;;;;;;5087495;28;20048;-65
2022/07/30 07:32:14;;;;;;;9.82;7.63;;;18.60;99.90;;;;;;5055222;28;20048;-66
2022/07/30 07:34:39;;;;;;;12.88;8.98;;;18.70;99.90;;;;;;5068757;28;20052;-65
2022/07/30 07:37:05;;;;;;;13.38;9.13;;;18.70;99.90;;;;;;5074202;28;20492;-65
2022/07/30 07:39:31;;;;;;;13.45;8.95;;;18.90;99.90;;;;;;5071302;28;20412;-66
2022/07/30 07:41:56;;;;;;;13.65;10.10;;;18.90;99.90;;;;;;5074374;28;20407;-66
2022/07/30 07:44:22;;;;;;;12.80;9.60;;;18.90;99.90;;;;;;5076738;28;20500;-65
2022/07/30 07:46:48;;;;;;;17.45;10.25;;;19.20;99.90;;;;;;5079462;28;20199;-66
2022/07/30 07:49:14;;;;;;;12.57;9.48;;;19.10;99.90;;;;;;5084308;28;20047;-66
2022/07/30 07:51:39;;;;;;;12.35;9.70;;;19.30;99.90;;;;;;5093237;28;20198;-66
2022/07/30 07:54:05;;;;;;;15.18;9.68;;;19.40;99.90;;;;;;5095572;28;20033;-65
2022/07/30 07:56:31;;;;;;;15.27;10.40;;;19.30;99.90;;;;;;5097326;28;20080;-65
2022/07/30 07:58:57;;;;;;;15.45;10.75;;;19.30;99.90;;;;;;5074965;28;20059;-65
2022/07/30 08:01:23;;;;;;;13.90;8.27;;;19.30;99.90;;;;;;5084023;28;20051;-65
2022/07/30 08:03:49;;;;;;;13.88;8.77;;;19.40;99.90;;;;;;5083405;28;20048;-65
2022/07/30 08:06:14;;;;;;;18.33;10.38;;;19.50;99.90;;;;;;5098692;28;20032;-64
2022/07/30 08:08:40;;;;;;;15.40;9.68;;;19.40;99.90;;;;;;5082039;28;20106;-64
2022/07/30 08:11:06;;;;;;;26.48;8.25;;;19.50;99.90;;;;;;5079499;28;20041;-66
2022/07/30 08:13:32;;;;;;;17.15;10.75;;;19.60;99.90;;;;;;5098448;28;20096;-63
2022/07/30 08:16:00;;;;;;;17.58;11.10;;;19.60;99.90;;;;;;5081480;28;20053;-63
2022/07/30 08:18:25;;;;;;;11.93;9.25;;;19.60;99.90;;;;;;5082425;28;20036;-63
2022/07/30 08:20:51;;;;;;;15.30;12.18;;;19.60;99.90;;;;;;5099921;28;20110;-64
2022/07/30 08:23:18;;;;;;;18.38;11.98;;;19.60;99.90;;;;;;5065808;28;20056;-63
2022/07/30 08:25:44;;;;;;;17.83;13.98;;;19.60;99.90;;;;;;5064707;28;20051;-63
2022/07/30 08:28:10;;;;;;;17.70;11.70;;;19.70;99.90;;;;;;5082592;28;20128;-64
2022/07/30 08:30:35;;;;;;;16.90;10.98;;;19.60;99.90;;;;;;5060133;28;20032;-64
2022/07/30 08:33:02;;;;;;;18.27;13.38;;;19.70;99.90;;;;;;5085847;28;20037;-63
2022/07/30 08:35:27;;;;;;;20.98;12.88;;;19.70;99.90;;;;;;5086280;28;20575;-64
2022/07/30 08:37:53;;;;;;;17.35;11.30;;;19.70;99.90;;;;;;5065667;28;20041;-63
2022/07/30 08:40:19;;;;;;;13.52;11.50;;;19.70;99.90;;;;;;5064812;28;20056;-64
2022/07/30 08:42:46;;;;;;;16.65;10.40;;;19.70;99.90;;;;;;5080773;28;20082;-64
2022/07/30 08:45:13;;;;;;;11.15;7.32;;;19.80;99.90;;;;;;5065004;28;20048;-64
2022/07/30 08:47:40;;;;;;;14.60;9.18;;;19.90;99.90;;;;;;5087116;28;20137;-64
2022/07/30 08:50:07;;;;;;;11.68;9.25;;;20.00;99.90;;;;;;5027396;28;20061;-64
2022/07/30 08:52:36;;;;;;;14.45;8.45;;;20.30;99.90;;;;;;5029129;28;20049;-65
2022/07/30 08:55:03;;;;;;;14.52;9.55;;;20.30;99.90;;;;;;5052823;28;20049;-65
2022/07/30 08:57:30;;;;;;;15.00;9.30;;;20.10;99.90;;;;;;5049124;28;20056;-64
2022/07/30 08:59:57;;;;;;;12.70;10.02;;;20.30;99.90;;;;;;5071719;28;20041;-64
2022/07/30 09:02:24;;;;;;;12.98;9.02;;;20.20;99.90;;;;;;5049215;28;20063;-65
2022/07/30 09:04:49;;;;;;;16.77;10.43;;;20.50;99.90;;;;;;5038546;28;20052;-65
2022/07/30 09:07:15;;;;;;;16.17;7.05;;;20.50;99.90;;;;;;5065629;28;20040;-64
2022/07/30 09:09:41;;;;;;;12.57;8.98;;;20.50;99.90;;;;;;5054581;28;20040;-64
2022/07/30 09:12:35;;;;;;;10.27;6.85;;;20.50;99.90;;;;;;5049948;28;20037;-65
2022/07/30 09:15:22;;;;;;;10.82;5.80;;;20.60;99.90;;;;;;5055632;28;20389;-64
2022/07/30 09:18:03;;;;;;;10.15;5.63;;;20.90;99.90;;;;;;5044250;28;20152;-64
2022/07/30 09:20:32;;;;;;;11.45;5.47;;;21.00;99.90;;;;;;5044385;28;20248;-65
2022/07/30 09:23:00;;;;;;;14.93;6.85;;;21.20;99.90;;;;;;5065929;28;20780;-64
2022/07/30 09:25:35;;;;;;;8.70;5.40;;;21.30;99.90;;;;;;5069051;28;20087;-64
2022/07/30 09:28:01;;;;;;;7.22;5.00;;;21.30;99.90;;;;;;5086365;28;20056;-64
2022/07/30 09:30:48;;;;;;;9.13;5.20;;;21.40;99.90;;;;;;5090901;28;20032;-65
2022/07/30 09:33:14;;;;;;;9.75;5.35;;;21.40;99.90;;;;;;5086523;28;20186;-64
2022/07/30 09:35:40;;;;;;;11.95;6.28;;;21.50;99.90;;;;;;5087915;28;20087;-64
2022/07/30 09:38:07;;;;;;;10.55;5.80;;;21.50;99.90;;;;;;5084165;28;20182;-64
2022/07/30 09:40:33;;;;;;;8.65;4.78;;;21.50;99.90;;;;;;5084548;28;20045;-65
2022/07/30 09:43:03;;;;;;;8.82;5.00;;;21.50;99.90;;;;;;5086169;28;20080;-64
2022/07/30 09:45:29;;;;;;;9.85;4.97;;;21.50;99.90;;;;;;5091453;28;20450;-64
2022/07/30 09:47:54;;;;;;;12.20;4.85;;;21.60;99.90;;;;;;5062170;28;20075;-64
2022/07/30 09:50:22;;;;;;;9.30;4.43;;;21.60;99.90;;;;;;5055852;28;20056;-64
2022/07/30 09:52:49;;;;;;;12.73;4.78;;;21.60;99.90;;;;;;5051344;28;20048;-67
2022/07/30 09:55:31;;;;;;;12.05;4.47;;;21.60;99.90;;;;;;5077856;28;20100;-66
2022/07/30 09:58:00;;;;;;;8.82;4.53;;;21.70;99.90;;;;;;5046975;28;20143;-66
2022/07/30 10:00:28;;;;;;;10.80;4.95;;;21.70;99.90;;;;;;5063696;28;20063;-66
2022/07/30 10:02:54;;;;;;;7.20;4.65;;;21.70;99.90;;;;;;5066062;28;20056;-66
2022/07/30 10:05:23;;;;;;;6.32;4.88;;;21.60;99.90;;;;;;5067323;28;20056;-66
2022/07/30 10:08:00;;;;;;;8.00;5.00;;;21.70;99.90;;;;;;5058062;28;20067;-66
2022/07/30 10:10:30;;;;;;;10.35;4.47;;;21.90;99.90;;;;;;5064024;28;20039;-67
2022/07/30 10:13:02;;;;;;;10.35;5.47;;;21.90;99.90;;;;;;5050006;28;20163;-66
2022/07/30 10:15:31;;;;;;;7.30;4.57;;;21.90;99.90;;;;;;5066303;28;20645;-66
2022/07/30 10:17:58;;;;;;;6.95;4.05;;;21.90;99.90;;;;;;5072021;28;20094;-66
2022/07/30 10:20:24;;;;;;;9.15;4.72;;;22.00;99.90;;;;;;5061116;28;20499;-67
2022/07/30 10:22:50;;;;;;;8.82;4.30;;;22.10;99.90;;;;;;5063153;28;20048;-67
2022/07/30 10:25:21;;;;;;;7.80;4.20;;;22.30;99.90;;;;;;5057519;28;20061;-66
2022/07/30 10:27:48;;;;;;;9.98;4.13;;;22.30;99.90;;;;;;5081976;28;20199;-66
2022/07/30 10:30:15;;;;;;;10.23;4.90;;;22.10;99.90;;;;;;5072394;28;20052;-66
2022/07/30 10:32:41;;;;;;;9.50;4.45;;;22.00;99.90;;;;;;5045265;28;20036;-66
2022/07/30 10:35:08;;;;;;;10.00;4.75;;;22.00;99.90;;;;;;5072371;28;20084;-66
2022/07/30 10:37:36;;;;;;;8.88;4.70;;;22.00;99.90;;;;;;5084063;28;20044;-66
2022/07/30 10:40:29;;;;;;;9.95;4.57;;;22.10;99.90;;;;;;5070465;28;20047;-66
2022/07/30 10:43:16;;;;;;;8.10;4.30;;;22.10;99.90;;;;;;5058323;28;20075;-66
2022/07/30 10:46:09;;;;;;;10.15;4.43;;;22.10;99.90;;;;;;5097924;28;20047;-66
2022/07/30 10:48:35;;;;;;;6.63;3.97;;;22.20;99.90;;;;;;5068487;28;20711;-67
2022/07/30 10:51:01;;;;;;;7.00;4.03;;;22.40;99.90;;;;;;5063107;28;20049;-68
2022/07/30 10:53:45;;;;;;;7.78;3.72;;;22.60;99.90;;;;;;5058734;28;20111;-66
2022/07/30 10:56:20;;;;;;;7.18;4.07;;;22.80;99.90;;;;;;5069889;28;20139;-66
2022/07/30 10:59:04;;;;;;;9.90;4.20;;;22.80;99.90;;;;;;5040027;28;20053;-66
2022/07/30 11:01:58;;;;;;;8.45;4.25;;;22.80;99.90;;;;;;5085259;28;20047;-67
2022/07/30 11:04:26;;;;;;;12.00;4.13;;;22.70;99.90;;;;;;5045908;28;20071;-66
2022/07/30 11:07:12;;;;;;;5.82;3.60;;;22.70;99.90;;;;;;5062581;28;20045;-66
2022/07/30 11:09:42;;;;;;;7.47;3.65;;;22.80;99.90;;;;;;5038157;28;20048;-66
2022/07/30 11:12:08;;;;;;;11.05;3.55;;;23.00;99.90;;;;;;5068010;28;20104;-66
2022/07/30 11:14:46;;;;;;;7.75;3.70;;;23.10;99.90;;;;;;5063813;28;20060;-66
2022/07/30 11:17:13;;;;;;;6.00;3.25;;;23.20;99.90;;;;;;5067620;28;20108;-66
2022/07/30 11:20:05;;;;;;;6.35;3.10;;;23.40;99.90;;;;;;5067446;28;20543;-66
2022/07/30 11:22:37;;;;;;;7.60;3.60;;;23.60;99.90;;;;;;5068818;28;20064;-66
2022/07/30 11:25:05;;;;;;;6.85;3.38;;;23.70;99.90;;;;;;5057440;28;20075;-67
2022/07/30 11:27:44;;;;;;;7.50;3.28;;;23.70;99.90;;;;;;5076067;28;20056;-67
2022/07/30 11:30:15;;;;;;;12.27;3.45;;;23.60;99.90;;;;;;5066807;28;20045;-66
2022/07/30 11:32:49;;;;;;;7.72;3.72;;;23.80;99.90;;;;;;5061474;28;20125;-66
2022/07/30 11:35:23;;;;;;;9.98;3.50;;;24.00;99.90;;;;;;5038269;28;20107;-67
2022/07/30 11:38:14;;;;;;;7.65;3.83;;;24.20;99.90;;;;;;5072399;28;20080;-64
2022/07/30 11:40:46;;;;;;;9.38;3.30;;;24.00;99.90;;;;;;5049623;28;20052;-63
2022/07/30 11:43:25;;;;;;;5.75;3.40;;;23.90;99.90;;;;;;5049215;28;20580;-64
2022/07/30 11:46:22;;;;;;;6.82;3.10;;;23.70;99.90;;;;;;5076499;28;20052;-64
2022/07/30 11:49:00;;;;;;;7.95;2.55;;;23.90;99.90;;;;;;5071043;28;20083;-65
2022/07/30 11:51:26;;;;;;;7.15;3.05;;;24.00;99.90;;;;;;5055883;28;20125;-65
2022/07/30 11:54:03;;;;;;;6.95;2.92;;;24.10;99.90;;;;;;5054913;28;20060;-64
2022/07/30 11:56:29;;;;;;;7.38;2.67;;;24.10;99.90;;;;;;5076274;28;20056;-63
2022/07/30 11:59:02;;;;;;;4.28;2.35;;;24.20;99.90;;;;;;5070944;28;20044;-63
2022/07/30 12:01:29;;;;;;;6.90;3.50;;;24.30;99.90;;;;;;5066880;28;20080;-63
2022/07/30 12:03:56;;;;;;;4.50;2.70;;;24.50;99.90;;;;;;5055705;28;20048;-63
2022/07/30 12:06:22;;;;;;;6.20;2.55;;;24.50;99.90;;;;;;5063082;28;20044;-63
2022/07/30 12:08:52;;;;;;;10.13;2.88;;;24.50;99.90;;;;;;5078306;28;20697;-63
2022/07/30 12:11:19;;;;;;;;;;;24.40;99.90;;;;;;5070573;28;20045;-63
2022/07/30 12:13:58;;;;;;;7.43;3.33;;;24.30;99.90;;;;;;5063160;28;19924;-63
2022/07/30 12:16:25;;;;;;;7.30;2.80;;;24.30;99.90;;;;;;5076520;28;20044;-62
2022/07/30 12:18:51;;;;;;;4.43;2.85;;;24.50;99.90;;;;;;5065010;28;20064;-63
2022/07/30 12:21:17;;;;;;;7.72;3.40;;;24.70;99.90;;;;;;5068513;28;20052;-63
2022/07/30 12:24:09;;;;;;;7.63;2.75;;;25.00;99.90;;;;;;5067677;28;20040;-63
2022/07/30 12:26:35;;;;;;;7.00;2.45;;;24.90;99.90;;;;;;5071402;28;20036;-67
2022/07/30 12:29:03;;;;;;;4.97;2.80;;;25.00;99.90;;;;;;5075904;28;20063;-64
2022/07/30 12:31:29;;;;;;;7.33;3.47;;;25.10;99.90;;;;;;5080503;28;20036;-66
2022/07/30 12:33:55;;;;;;;8.23;3.13;;;25.20;99.90;;;;;;5073596;28;20114;-65
2022/07/30 12:36:29;;;;;;;8.35;2.80;;;25.20;99.90;;;;;;5076410;28;20090;-65
2022/07/30 12:38:56;;;;;;;4.18;2.80;;;25.40;99.90;;;;;;5072467;28;20048;-65
2022/07/30 12:41:40;;;;;;;7.10;2.97;;;25.40;99.90;;;;;;5066705;28;20052;-65
2022/07/30 12:44:05;;;;;;;8.30;2.60;;;25.60;99.90;;;;;;5061453;28;20056;-65